sensor_id;sensor_type;location;lat;lon;timestamp;P1;durP1;ratioP1;P2;durP2;ratioP2
49590;SDS011;35496;-21.974;-46.800;2022-08-21T00:01:21;13.77;;;6.32;;
49590;SDS011;35496;-21.974;-46.800;2022-08-21T00:03:48;13.23;;;7.00;;
49590;SDS011;35496;-21.974;-46.800;2022-08-21T00:06:14;8.73;;;5.57;;
49590;SDS011;35496;-21.974;-46.800;2022-08-21T00:08:40;9.40;;;6.28;;
49590;SDS011;35496;-21.974;-46.800;2022-08-21T00:11:07;9.55;;;6.13;;
49590;SDS011;35496;-21.974;-46.800;2022-08-21T00:13:33;9.80;;;4.68;;
49590;SDS011;35496;-21.974;-46.800;2022-08-21T00:16:00;9.43;;;5.25;;
49590;SDS011;35496;-21.974;-46.800;2022-08-21T00:18:26;8.40;;;5.53;;
49590;SDS011;35496;-21.974;-46.800;2022-08-21T00:20:52;8.73;;;5.03;;
49590;SDS011;35496;-21.974;-46.800;2022-08-21T00:23:19;9.73;;;4.68;;
49590;SDS011;35496;-21.974;-46.800;2022-08-21T00:25:45;6.28;;;4.57;;
49590;SDS011;35496;-21.974;-46.800;2022-08-21T00:28:11;11.20;;;5.30;;
49590;SDS011;35496;-21.974;-46.800;2022-08-21T00:30:38;6.13;;;3.95;;
49590;SDS011;35496;-21.974;-46.800;2022-08-21T00:33:04;8.52;;;4.32;;
49590;SDS011;35496;-21.974;-46.800;2022-08-21T00:35:32;15.07;;;5.50;;
49590;SDS011;35496;-21.974;-46.800;2022-08-21T00:37:59;11.95;;;6.03;;
49590;SDS011;35496;-21.974;-46.800;2022-08-21T00:40:30;7.88;;;3.58;;
49590;SDS011;35496;-21.974;-46.800;2022-08-21T00:42:57;11.73;;;5.67;;
49590;SDS011;35496;-21.974;-46.800;2022-08-21T00:45:23;6.50;;;3.33;;
49590;SDS011;35496;-21.974;-46.800;2022-08-21T00:47:50;7.90;;;4.15;;
49590;SDS011;35496;-21.974;-46.800;2022-08-21T00:50:16;7.22;;;3.40;;
49590;SDS011;35496;-21.974;-46.800;2022-08-21T00:52:43;7.70;;;3.58;;
49590;SDS011;35496;-21.974;-46.800;2022-08-21T00:55:09;6.22;;;3.80;;
49590;SDS011;35496;-21.974;-46.800;2022-08-21T00:57:39;8.52;;;4.32;;
49590;SDS011;35496;-21.974;-46.800;2022-08-21T01:00:07;9.35;;;4.78;;
49590;SDS011;35496;-21.974;-46.800;2022-08-21T01:02:34;5.53;;;3.85;;
49590;SDS011;35496;-21.974;-46.800;2022-08-21T01:05:00;6.88;;;3.55;;
49590;SDS011;35496;-21.974;-46.800;2022-08-21T01:07:26;10.48;;;3.72;;
49590;SDS011;35496;-21.974;-46.800;2022-08-21T01:09:52;7.07;;;3.88;;
49590;SDS011;35496;-21.974;-46.800;2022-08-21T01:12:18;9.27;;;4.45;;
49590;SDS011;35496;-21.974;-46.800;2022-08-21T01:14:44;8.05;;;3.90;;
49590;SDS011;35496;-21.974;-46.800;2022-08-21T01:17:14;12.98;;;2.88;;
49590;SDS011;35496;-21.974;-46.800;2022-08-21T01:19:41;5.18;;;3.25;;
49590;SDS011;35496;-21.974;-46.800;2022-08-21T01:22:07;6.70;;;3.45;;
49590;SDS011;35496;-21.974;-46.800;2022-08-21T01:24:33;3.83;;;3.50;;
49590;SDS011;35496;-21.974;-46.800;2022-08-21T01:27:00;6.85;;;4.38;;
49590;SDS011;35496;-21.974;-46.800;2022-08-21T01:31:59;7.97;;;3.85;;
49590;SDS011;35496;-21.974;-46.800;2022-08-21T01:34:28;4.72;;;3.53;;
49590;SDS011;35496;-21.974;-46.800;2022-08-21T01:36:55;10.32;;;4.05;;
49590;SDS011;35496;-21.974;-46.800;2022-08-21T01:39:21;6.82;;;3.45;;
49590;SDS011;35496;-21.974;-46.800;2022-08-21T01:41:47;10.32;;;4.15;;
49590;SDS011;35496;-21.974;-46.800;2022-08-21T01:44:14;6.95;;;3.40;;
49590;SDS011;35496;-21.974;-46.800;2022-08-21T01:46:40;9.60;;;3.50;;
49590;SDS011;35496;-21.974;-46.800;2022-08-21T01:49:06;12.48;;;3.55;;
49590;SDS011;35496;-21.974;-46.800;2022-08-21T01:51:32;8.05;;;3.22;;
49590;SDS011;35496;-21.974;-46.800;2022-08-21T01:53:58;4.93;;;3.10;;
49590;SDS011;35496;-21.974;-46.800;2022-08-21T01:56:25;14.45;;;4.03;;
49590;SDS011;35496;-21.974;-46.800;2022-08-21T01:58:52;15.80;;;6.97;;
49590;SDS011;35496;-21.974;-46.800;2022-08-21T02:01:18;4.82;;;3.33;;
49590;SDS011;35496;-21.974;-46.800;2022-08-21T02:03:44;4.72;;;3.20;;
49590;SDS011;35496;-21.974;-46.800;2022-08-21T02:06:14;7.90;;;4.30;;
49590;SDS011;35496;-21.974;-46.800;2022-08-21T02:11:08;4.20;;;2.78;;
49590;SDS011;35496;-21.974;-46.800;2022-08-21T02:13:34;2.83;;;2.38;;
49590;SDS011;35496;-21.974;-46.800;2022-08-21T02:16:00;5.53;;;2.65;;
49590;SDS011;35496;-21.974;-46.800;2022-08-21T02:18:26;7.20;;;3.35;;
49590;SDS011;35496;-21.974;-46.800;2022-08-21T02:20:52;5.30;;;3.53;;
49590;SDS011;35496;-21.974;-46.800;2022-08-21T02:23:19;7.40;;;3.35;;
49590;SDS011;35496;-21.974;-46.800;2022-08-21T02:25:45;10.93;;;3.40;;
49590;SDS011;35496;-21.974;-46.800;2022-08-21T02:28:11;9.90;;;3.08;;
49590;SDS011;35496;-21.974;-46.800;2022-08-21T02:30:40;11.45;;;3.47;;
49590;SDS011;35496;-21.974;-46.800;2022-08-21T02:33:06;5.45;;;2.90;;
49590;SDS011;35496;-21.974;-46.800;2022-08-21T02:35:33;10.63;;;3.08;;
49590;SDS011;35496;-21.974;-46.800;2022-08-21T02:38:00;29.33;;;4.05;;
49590;SDS011;35496;-21.974;-46.800;2022-08-21T02:40:28;7.55;;;2.90;;
49590;SDS011;35496;-21.974;-46.800;2022-08-21T02:42:56;8.35;;;3.85;;
49590;SDS011;35496;-21.974;-46.800;2022-08-21T02:45:22;8.52;;;3.22;;
49590;SDS011;35496;-21.974;-46.800;2022-08-21T02:47:49;4.85;;;2.65;;
49590;SDS011;35496;-21.974;-46.800;2022-08-21T02:50:17;7.18;;;2.67;;
49590;SDS011;35496;-21.974;-46.800;2022-08-21T02:52:44;8.95;;;2.65;;
49590;SDS011;35496;-21.974;-46.800;2022-08-21T02:55:10;6.63;;;2.28;;
49590;SDS011;35496;-21.974;-46.800;2022-08-21T02:57:36;10.85;;;3.55;;
49590;SDS011;35496;-21.974;-46.800;2022-08-21T03:00:03;5.65;;;2.22;;
49590;SDS011;35496;-21.974;-46.800;2022-08-21T03:02:30;6.55;;;2.17;;
49590;SDS011;35496;-21.974;-46.800;2022-08-21T03:04:56;7.25;;;2.65;;
49590;SDS011;35496;-21.974;-46.800;2022-08-21T03:07:23;5.65;;;1.77;;
49590;SDS011;35496;-21.974;-46.800;2022-08-21T03:09:49;7.15;;;3.45;;
49590;SDS011;35496;-21.974;-46.800;2022-08-21T03:12:15;6.47;;;2.63;;
49590;SDS011;35496;-21.974;-46.800;2022-08-21T03:14:41;3.35;;;2.35;;
49590;SDS011;35496;-21.974;-46.800;2022-08-21T03:17:07;4.30;;;1.67;;
49590;SDS011;35496;-21.974;-46.800;2022-08-21T03:19:33;5.53;;;2.38;;
49590;SDS011;35496;-21.974;-46.800;2022-08-21T03:21:59;4.30;;;2.17;;
49590;SDS011;35496;-21.974;-46.800;2022-08-21T03:24:25;2.95;;;1.60;;
49590;SDS011;35496;-21.974;-46.800;2022-08-21T03:26:51;4.57;;;2.33;;
49590;SDS011;35496;-21.974;-46.800;2022-08-21T03:29:17;3.50;;;2.17;;
49590;SDS011;35496;-21.974;-46.800;2022-08-21T03:31:44;2.42;;;2.03;;
49590;SDS011;35496;-21.974;-46.800;2022-08-21T03:34:10;2.75;;;2.15;;
49590;SDS011;35496;-21.974;-46.800;2022-08-21T03:36:36;6.05;;;1.70;;
49590;SDS011;35496;-21.974;-46.800;2022-08-21T03:39:02;7.95;;;2.78;;
49590;SDS011;35496;-21.974;-46.800;2022-08-21T03:41:28;4.13;;;1.95;;
49590;SDS011;35496;-21.974;-46.800;2022-08-21T03:43:54;3.45;;;2.22;;
49590;SDS011;35496;-21.974;-46.800;2022-08-21T03:46:21;10.05;;;2.40;;
49590;SDS011;35496;-21.974;-46.800;2022-08-21T03:48:47;2.72;;;2.13;;
49590;SDS011;35496;-21.974;-46.800;2022-08-21T03:51:13;5.85;;;2.00;;
49590;SDS011;35496;-21.974;-46.800;2022-08-21T03:53:39;7.68;;;2.65;;
49590;SDS011;35496;-21.974;-46.800;2022-08-21T03:56:05;4.43;;;1.83;;
49590;SDS011;35496;-21.974;-46.800;2022-08-21T03:58:31;2.08;;;1.63;;
49590;SDS011;35496;-21.974;-46.800;2022-08-21T04:00:58;1.40;;;1.30;;
49590;SDS011;35496;-21.974;-46.800;2022-08-21T04:03:25;2.80;;;1.75;;
49590;SDS011;35496;-21.974;-46.800;2022-08-21T04:05:52;2.10;;;1.55;;
49590;SDS011;35496;-21.974;-46.800;2022-08-21T04:08:18;4.20;;;2.25;;
49590;SDS011;35496;-21.974;-46.800;2022-08-21T04:10:45;3.30;;;2.03;;
49590;SDS011;35496;-21.974;-46.800;2022-08-21T04:13:12;5.47;;;2.20;;
49590;SDS011;35496;-21.974;-46.800;2022-08-21T04:15:40;3.75;;;1.30;;
49590;SDS011;35496;-21.974;-46.800;2022-08-21T04:18:06;2.92;;;1.55;;
49590;SDS011;35496;-21.974;-46.800;2022-08-21T04:20:34;18.90;;;2.55;;
49590;SDS011;35496;-21.974;-46.800;2022-08-21T04:23:01;2.13;;;1.88;;
49590;SDS011;35496;-21.974;-46.800;2022-08-21T04:25:27;3.55;;;1.98;;
49590;SDS011;35496;-21.974;-46.800;2022-08-21T04:27:54;4.65;;;2.92;;
49590;SDS011;35496;-21.974;-46.800;2022-08-21T04:30:20;2.70;;;2.38;;
49590;SDS011;35496;-21.974;-46.800;2022-08-21T04:32:47;7.97;;;2.92;;
49590;SDS011;35496;-21.974;-46.800;2022-08-21T04:35:13;4.05;;;3.15;;
49590;SDS011;35496;-21.974;-46.800;2022-08-21T04:37:39;5.53;;;3.17;;
49590;SDS011;35496;-21.974;-46.800;2022-08-21T04:40:06;6.75;;;3.85;;
49590;SDS011;35496;-21.974;-46.800;2022-08-21T04:42:33;6.53;;;2.97;;
49590;SDS011;35496;-21.974;-46.800;2022-08-21T04:45:06;4.70;;;3.22;;
49590;SDS011;35496;-21.974;-46.800;2022-08-21T04:47:32;3.58;;;2.85;;
49590;SDS011;35496;-21.974;-46.800;2022-08-21T04:49:58;3.45;;;3.13;;
49590;SDS011;35496;-21.974;-46.800;2022-08-21T04:52:24;4.25;;;2.70;;
49590;SDS011;35496;-21.974;-46.800;2022-08-21T04:54:50;4.45;;;2.50;;
49590;SDS011;35496;-21.974;-46.800;2022-08-21T04:57:17;6.53;;;3.35;;
49590;SDS011;35496;-21.974;-46.800;2022-08-21T04:59:45;3.28;;;2.88;;
49590;SDS011;35496;-21.974;-46.800;2022-08-21T05:02:11;11.35;;;3.05;;
49590;SDS011;35496;-21.974;-46.800;2022-08-21T05:04:41;4.90;;;3.33;;
49590;SDS011;35496;-21.974;-46.800;2022-08-21T05:07:10;7.38;;;3.33;;
49590;SDS011;35496;-21.974;-46.800;2022-08-21T05:09:37;15.68;;;3.20;;
49590;SDS011;35496;-21.974;-46.800;2022-08-21T05:12:04;7.40;;;4.22;;
49590;SDS011;35496;-21.974;-46.800;2022-08-21T05:14:30;7.45;;;3.90;;
49590;SDS011;35496;-21.974;-46.800;2022-08-21T05:16:56;7.03;;;3.13;;
49590;SDS011;35496;-21.974;-46.800;2022-08-21T05:19:24;13.57;;;3.90;;
49590;SDS011;35496;-21.974;-46.800;2022-08-21T05:21:51;11.52;;;4.05;;
49590;SDS011;35496;-21.974;-46.800;2022-08-21T05:24:17;5.65;;;3.47;;
49590;SDS011;35496;-21.974;-46.800;2022-08-21T05:26:44;12.93;;;5.18;;
49590;SDS011;35496;-21.974;-46.800;2022-08-21T05:29:11;6.82;;;3.97;;
49590;SDS011;35496;-21.974;-46.800;2022-08-21T05:31:37;5.97;;;3.95;;
49590;SDS011;35496;-21.974;-46.800;2022-08-21T05:34:03;9.73;;;3.95;;
49590;SDS011;35496;-21.974;-46.800;2022-08-21T05:36:30;9.45;;;4.05;;
49590;SDS011;35496;-21.974;-46.800;2022-08-21T05:38:56;6.20;;;3.85;;
49590;SDS011;35496;-21.974;-46.800;2022-08-21T05:41:22;6.03;;;3.08;;
49590;SDS011;35496;-21.974;-46.800;2022-08-21T05:43:48;16.75;;;3.90;;
49590;SDS011;35496;-21.974;-46.800;2022-08-21T05:46:15;10.25;;;4.38;;
49590;SDS011;35496;-21.974;-46.800;2022-08-21T05:48:41;8.25;;;3.35;;
49590;SDS011;35496;-21.974;-46.800;2022-08-21T05:51:08;9.50;;;4.43;;
49590;SDS011;35496;-21.974;-46.800;2022-08-21T05:53:35;4.82;;;3.50;;
49590;SDS011;35496;-21.974;-46.800;2022-08-21T05:56:02;8.70;;;3.67;;
49590;SDS011;35496;-21.974;-46.800;2022-08-21T05:58:29;9.30;;;3.72;;
49590;SDS011;35496;-21.974;-46.800;2022-08-21T06:00:56;7.13;;;4.35;;
49590;SDS011;35496;-21.974;-46.800;2022-08-21T06:03:24;5.80;;;2.97;;
49590;SDS011;35496;-21.974;-46.800;2022-08-21T06:05:51;9.43;;;3.90;;
49590;SDS011;35496;-21.974;-46.800;2022-08-21T06:08:18;5.63;;;4.40;;
49590;SDS011;35496;-21.974;-46.800;2022-08-21T06:10:45;9.13;;;4.13;;
49590;SDS011;35496;-21.974;-46.800;2022-08-21T06:13:13;7.65;;;3.85;;
49590;SDS011;35496;-21.974;-46.800;2022-08-21T06:15:39;12.85;;;4.47;;
49590;SDS011;35496;-21.974;-46.800;2022-08-21T06:18:05;22.88;;;3.85;;
49590;SDS011;35496;-21.974;-46.800;2022-08-21T06:20:31;7.05;;;3.42;;
49590;SDS011;35496;-21.974;-46.800;2022-08-21T06:22:58;8.27;;;5.03;;
49590;SDS011;35496;-21.974;-46.800;2022-08-21T06:25:24;4.53;;;3.28;;
49590;SDS011;35496;-21.974;-46.800;2022-08-21T06:27:50;6.88;;;3.08;;
49590;SDS011;35496;-21.974;-46.800;2022-08-21T06:30:17;9.05;;;4.45;;
49590;SDS011;35496;-21.974;-46.800;2022-08-21T06:32:44;7.93;;;3.30;;
49590;SDS011;35496;-21.974;-46.800;2022-08-21T06:35:10;8.57;;;3.53;;
49590;SDS011;35496;-21.974;-46.800;2022-08-21T06:37:36;11.73;;;4.22;;
49590;SDS011;35496;-21.974;-46.800;2022-08-21T06:40:03;7.88;;;3.70;;
49590;SDS011;35496;-21.974;-46.800;2022-08-21T06:42:30;9.23;;;3.83;;
49590;SDS011;35496;-21.974;-46.800;2022-08-21T06:44:56;12.27;;;3.83;;
49590;SDS011;35496;-21.974;-46.800;2022-08-21T06:47:22;6.75;;;4.35;;
49590;SDS011;35496;-21.974;-46.800;2022-08-21T06:49:48;5.25;;;4.53;;
49590;SDS011;35496;-21.974;-46.800;2022-08-21T06:52:15;13.70;;;4.22;;
49590;SDS011;35496;-21.974;-46.800;2022-08-21T06:54:41;10.68;;;4.13;;
49590;SDS011;35496;-21.974;-46.800;2022-08-21T06:57:07;9.07;;;4.97;;
49590;SDS011;35496;-21.974;-46.800;2022-08-21T06:59:34;5.55;;;3.72;;
49590;SDS011;35496;-21.974;-46.800;2022-08-21T07:02:00;5.07;;;3.88;;
49590;SDS011;35496;-21.974;-46.800;2022-08-21T07:04:26;6.75;;;4.70;;
49590;SDS011;35496;-21.974;-46.800;2022-08-21T07:06:52;7.65;;;3.67;;
49590;SDS011;35496;-21.974;-46.800;2022-08-21T07:09:18;5.65;;;3.20;;
49590;SDS011;35496;-21.974;-46.800;2022-08-21T07:11:45;8.60;;;4.45;;
49590;SDS011;35496;-21.974;-46.800;2022-08-21T07:14:14;7.97;;;3.85;;
49590;SDS011;35496;-21.974;-46.800;2022-08-21T07:16:40;8.02;;;3.72;;
49590;SDS011;35496;-21.974;-46.800;2022-08-21T07:19:06;6.20;;;4.22;;
49590;SDS011;35496;-21.974;-46.800;2022-08-21T07:21:32;6.47;;;4.32;;
49590;SDS011;35496;-21.974;-46.800;2022-08-21T07:23:58;8.32;;;4.60;;
49590;SDS011;35496;-21.974;-46.800;2022-08-21T07:26:24;8.18;;;4.20;;
49590;SDS011;35496;-21.974;-46.800;2022-08-21T07:28:51;9.88;;;4.55;;
49590;SDS011;35496;-21.974;-46.800;2022-08-21T07:31:18;6.15;;;3.88;;
49590;SDS011;35496;-21.974;-46.800;2022-08-21T07:33:44;5.45;;;3.83;;
49590;SDS011;35496;-21.974;-46.800;2022-08-21T07:36:11;11.52;;;4.63;;
49590;SDS011;35496;-21.974;-46.800;2022-08-21T07:38:37;7.68;;;4.32;;
49590;SDS011;35496;-21.974;-46.800;2022-08-21T07:41:17;8.05;;;3.97;;
49590;SDS011;35496;-21.974;-46.800;2022-08-21T07:43:43;6.95;;;3.72;;
49590;SDS011;35496;-21.974;-46.800;2022-08-21T07:46:09;5.47;;;3.90;;
49590;SDS011;35496;-21.974;-46.800;2022-08-21T07:48:36;5.93;;;4.78;;
49590;SDS011;35496;-21.974;-46.800;2022-08-21T07:51:02;14.88;;;5.20;;
49590;SDS011;35496;-21.974;-46.800;2022-08-21T07:53:30;4.78;;;4.07;;
49590;SDS011;35496;-21.974;-46.800;2022-08-21T07:55:57;4.85;;;3.40;;
49590;SDS011;35496;-21.974;-46.800;2022-08-21T07:58:23;8.32;;;5.20;;
49590;SDS011;35496;-21.974;-46.800;2022-08-21T08:00:49;6.43;;;3.90;;
49590;SDS011;35496;-21.974;-46.800;2022-08-21T08:03:15;11.50;;;4.68;;
49590;SDS011;35496;-21.974;-46.800;2022-08-21T08:05:41;8.35;;;5.35;;
49590;SDS011;35496;-21.974;-46.800;2022-08-21T08:08:08;16.17;;;5.88;;
49590;SDS011;35496;-21.974;-46.800;2022-08-21T08:10:34;11.50;;;5.47;;
49590;SDS011;35496;-21.974;-46.800;2022-08-21T08:13:01;14.48;;;7.95;;
49590;SDS011;35496;-21.974;-46.800;2022-08-21T08:15:27;17.77;;;8.68;;
49590;SDS011;35496;-21.974;-46.800;2022-08-21T08:17:54;19.38;;;7.90;;
49590;SDS011;35496;-21.974;-46.800;2022-08-21T08:20:20;26.63;;;8.55;;
49590;SDS011;35496;-21.974;-46.800;2022-08-21T08:22:48;16.05;;;9.18;;
49590;SDS011;35496;-21.974;-46.800;2022-08-21T08:25:15;16.67;;;8.70;;
49590;SDS011;35496;-21.974;-46.800;2022-08-21T08:27:41;12.38;;;6.32;;
49590;SDS011;35496;-21.974;-46.800;2022-08-21T08:30:09;10.93;;;6.72;;
49590;SDS011;35496;-21.974;-46.800;2022-08-21T08:32:36;13.63;;;7.68;;
49590;SDS011;35496;-21.974;-46.800;2022-08-21T08:35:03;10.23;;;6.75;;
49590;SDS011;35496;-21.974;-46.800;2022-08-21T08:37:29;13.35;;;8.07;;
49590;SDS011;35496;-21.974;-46.800;2022-08-21T08:39:55;10.38;;;7.22;;
49590;SDS011;35496;-21.974;-46.800;2022-08-21T08:42:25;10.77;;;7.05;;
49590;SDS011;35496;-21.974;-46.800;2022-08-21T08:44:57;14.15;;;8.18;;
49590;SDS011;35496;-21.974;-46.800;2022-08-21T08:47:24;10.37;;;7.10;;
49590;SDS011;35496;-21.974;-46.800;2022-08-21T08:50:06;11.82;;;6.03;;
49590;SDS011;35496;-21.974;-46.800;2022-08-21T08:52:33;16.30;;;8.27;;
49590;SDS011;35496;-21.974;-46.800;2022-08-21T08:55:07;8.75;;;6.40;;
49590;SDS011;35496;-21.974;-46.800;2022-08-21T08:57:35;9.82;;;6.68;;
49590;SDS011;35496;-21.974;-46.800;2022-08-21T09:00:08;10.07;;;6.40;;
49590;SDS011;35496;-21.974;-46.800;2022-08-21T09:02:37;15.60;;;7.47;;
49590;SDS011;35496;-21.974;-46.800;2022-08-21T09:05:04;12.52;;;7.88;;
49590;SDS011;35496;-21.974;-46.800;2022-08-21T09:15:12;13.77;;;7.60;;
49590;SDS011;35496;-21.974;-46.800;2022-08-21T09:25:32;35.63;;;11.00;;
49590;SDS011;35496;-21.974;-46.800;2022-08-21T09:27:58;16.52;;;10.88;;
49590;SDS011;35496;-21.974;-46.800;2022-08-21T09:30:31;15.10;;;11.05;;
49590;SDS011;35496;-21.974;-46.800;2022-08-21T09:32:58;15.50;;;10.23;;
49590;SDS011;35496;-21.974;-46.800;2022-08-21T09:35:25;9.07;;;6.85;;
49590;SDS011;35496;-21.974;-46.800;2022-08-21T09:40:31;9.98;;;6.28;;
49590;SDS011;35496;-21.974;-46.800;2022-08-21T09:42:59;6.55;;;4.20;;
49590;SDS011;35496;-21.974;-46.800;2022-08-21T09:45:26;9.77;;;6.25;;
49590;SDS011;35496;-21.974;-46.800;2022-08-21T09:47:52;8.60;;;4.47;;
49590;SDS011;35496;-21.974;-46.800;2022-08-21T09:50:23;6.90;;;5.03;;
49590;SDS011;35496;-21.974;-46.800;2022-08-21T09:52:54;5.97;;;4.70;;
49590;SDS011;35496;-21.974;-46.800;2022-08-21T09:55:26;5.72;;;3.95;;
49590;SDS011;35496;-21.974;-46.800;2022-08-21T09:58:14;8.63;;;4.55;;
49590;SDS011;35496;-21.974;-46.800;2022-08-21T10:00:40;8.75;;;6.38;;
49590;SDS011;35496;-21.974;-46.800;2022-08-21T10:03:20;12.52;;;7.43;;
49590;SDS011;35496;-21.974;-46.800;2022-08-21T10:05:55;14.60;;;8.02;;
49590;SDS011;35496;-21.974;-46.800;2022-08-21T10:08:22;6.47;;;2.95;;
49590;SDS011;35496;-21.974;-46.800;2022-08-21T10:10:54;8.05;;;2.58;;
49590;SDS011;35496;-21.974;-46.800;2022-08-21T10:23:35;5.60;;;2.38;;
49590;SDS011;35496;-21.974;-46.800;2022-08-21T10:28:58;5.60;;;3.33;;
49590;SDS011;35496;-21.974;-46.800;2022-08-21T10:31:30;5.47;;;4.43;;
49590;SDS011;35496;-21.974;-46.800;2022-08-21T10:36:58;4.70;;;3.53;;
49590;SDS011;35496;-21.974;-46.800;2022-08-21T10:39:41;5.15;;;2.85;;
49590;SDS011;35496;-21.974;-46.800;2022-08-21T10:44:41;4.47;;;2.67;;
49590;SDS011;35496;-21.974;-46.800;2022-08-21T10:47:21;3.80;;;3.50;;
49590;SDS011;35496;-21.974;-46.800;2022-08-21T10:50:17;8.38;;;4.15;;
49590;SDS011;35496;-21.974;-46.800;2022-08-21T10:55:31;9.20;;;4.57;;
49590;SDS011;35496;-21.974;-46.800;2022-08-21T11:00:30;5.45;;;3.67;;
49590;SDS011;35496;-21.974;-46.800;2022-08-21T11:03:07;5.38;;;3.88;;
49590;SDS011;35496;-21.974;-46.800;2022-08-21T11:08:06;7.00;;;4.47;;
49590;SDS011;35496;-21.974;-46.800;2022-08-21T11:10:52;8.18;;;6.22;;
49590;SDS011;35496;-21.974;-46.800;2022-08-21T11:13:24;8.10;;;4.38;;
49590;SDS011;35496;-21.974;-46.800;2022-08-21T11:18:38;6.25;;;4.53;;
49590;SDS011;35496;-21.974;-46.800;2022-08-21T11:23:42;18.00;;;10.48;;
49590;SDS011;35496;-21.974;-46.800;2022-08-21T11:26:13;15.95;;;8.98;;
49590;SDS011;35496;-21.974;-46.800;2022-08-21T11:28:59;17.17;;;8.18;;
49590;SDS011;35496;-21.974;-46.800;2022-08-21T11:34:07;18.17;;;10.73;;
49590;SDS011;35496;-21.974;-46.800;2022-08-21T11:41:37;13.02;;;7.63;;
49590;SDS011;35496;-21.974;-46.800;2022-08-21T11:51:31;7.45;;;6.07;;
49590;SDS011;35496;-21.974;-46.800;2022-08-21T11:56:37;14.27;;;7.65;;
49590;SDS011;35496;-21.974;-46.800;2022-08-21T11:59:16;11.52;;;7.18;;
49590;SDS011;35496;-21.974;-46.800;2022-08-21T12:01:46;13.15;;;7.30;;
49590;SDS011;35496;-21.974;-46.800;2022-08-21T12:04:26;9.93;;;7.35;;
49590;SDS011;35496;-21.974;-46.800;2022-08-21T12:06:53;9.73;;;4.63;;
49590;SDS011;35496;-21.974;-46.800;2022-08-21T12:12:00;6.70;;;3.83;;
49590;SDS011;35496;-21.974;-46.800;2022-08-21T12:14:35;6.07;;;3.28;;
49590;SDS011;35496;-21.974;-46.800;2022-08-21T12:17:06;6.18;;;3.80;;
49590;SDS011;35496;-21.974;-46.800;2022-08-21T12:19:33;2.85;;;2.58;;
49590;SDS011;35496;-21.974;-46.800;2022-08-21T12:29:52;2.85;;;2.58;;
49590;SDS011;35496;-21.974;-46.800;2022-08-21T12:32:42;7.38;;;3.35;;
49590;SDS011;35496;-21.974;-46.800;2022-08-21T12:40:11;9.57;;;4.13;;
49590;SDS011;35496;-21.974;-46.800;2022-08-21T12:42:39;8.57;;;3.38;;
49590;SDS011;35496;-21.974;-46.800;2022-08-21T12:45:19;5.43;;;3.87;;
49590;SDS011;35496;-21.974;-46.800;2022-08-21T12:47:51;8.32;;;3.55;;
49590;SDS011;35496;-21.974;-46.800;2022-08-21T12:50:40;12.77;;;3.83;;
49590;SDS011;35496;-21.974;-46.800;2022-08-21T12:56:03;4.72;;;2.60;;
49590;SDS011;35496;-21.974;-46.800;2022-08-21T12:58:34;4.30;;;3.80;;
49590;SDS011;35496;-21.974;-46.800;2022-08-21T13:01:05;4.35;;;3.25;;
49590;SDS011;35496;-21.974;-46.800;2022-08-21T13:03:42;4.47;;;2.90;;
49590;SDS011;35496;-21.974;-46.800;2022-08-21T13:06:13;4.55;;;3.28;;
49590;SDS011;35496;-21.974;-46.800;2022-08-21T13:08:43;5.82;;;2.50;;
49590;SDS011;35496;-21.974;-46.800;2022-08-21T13:11:12;3.13;;;2.40;;
49590;SDS011;35496;-21.974;-46.800;2022-08-21T13:13:42;3.85;;;3.05;;
49590;SDS011;35496;-21.974;-46.800;2022-08-21T13:16:17;16.17;;;3.97;;
49590;SDS011;35496;-21.974;-46.800;2022-08-21T13:18:56;9.70;;;3.58;;
49590;SDS011;35496;-21.974;-46.800;2022-08-21T13:21:30;9.38;;;2.92;;
49590;SDS011;35496;-21.974;-46.800;2022-08-21T13:26:38;5.43;;;2.70;;
49590;SDS011;35496;-21.974;-46.800;2022-08-21T13:29:16;4.63;;;3.05;;
49590;SDS011;35496;-21.974;-46.800;2022-08-21T13:31:49;9.82;;;2.58;;
49590;SDS011;35496;-21.974;-46.800;2022-08-21T13:34:21;6.88;;;3.08;;
49590;SDS011;35496;-21.974;-46.800;2022-08-21T13:36:57;11.27;;;3.85;;
49590;SDS011;35496;-21.974;-46.800;2022-08-21T13:39:28;16.40;;;5.90;;
49590;SDS011;35496;-21.974;-46.800;2022-08-21T13:41:57;10.38;;;5.00;;
49590;SDS011;35496;-21.974;-46.800;2022-08-21T13:44:36;11.35;;;5.15;;
49590;SDS011;35496;-21.974;-46.800;2022-08-21T13:49:40;21.60;;;4.20;;
49590;SDS011;35496;-21.974;-46.800;2022-08-21T13:52:14;13.70;;;4.60;;
49590;SDS011;35496;-21.974;-46.800;2022-08-21T13:54:53;9.18;;;4.13;;
49590;SDS011;35496;-21.974;-46.800;2022-08-21T13:57:26;5.65;;;4.03;;
49590;SDS011;35496;-21.974;-46.800;2022-08-21T14:00:43;10.25;;;5.55;;
49590;SDS011;35496;-21.974;-46.800;2022-08-21T14:02:45;9.15;;;3.97;;
49590;SDS011;35496;-21.974;-46.800;2022-08-21T14:05:22;9.43;;;5.13;;
49590;SDS011;35496;-21.974;-46.800;2022-08-21T14:07:59;8.23;;;3.97;;
49590;SDS011;35496;-21.974;-46.800;2022-08-21T14:10:30;7.50;;;3.45;;
49590;SDS011;35496;-21.974;-46.800;2022-08-21T14:13:01;7.38;;;4.45;;
49590;SDS011;35496;-21.974;-46.800;2022-08-21T14:15:31;9.35;;;5.30;;
49590;SDS011;35496;-21.974;-46.800;2022-08-21T14:18:09;11.98;;;6.25;;
49590;SDS011;35496;-21.974;-46.800;2022-08-21T14:20:41;14.70;;;5.68;;
49590;SDS011;35496;-21.974;-46.800;2022-08-21T14:23:08;10.27;;;4.80;;
49590;SDS011;35496;-21.974;-46.800;2022-08-21T14:25:39;10.02;;;5.25;;
49590;SDS011;35496;-21.974;-46.800;2022-08-21T14:30:57;11.98;;;4.53;;
49590;SDS011;35496;-21.974;-46.800;2022-08-21T14:33:37;7.40;;;4.10;;
49590;SDS011;35496;-21.974;-46.800;2022-08-21T14:36:04;10.10;;;4.68;;
49590;SDS011;35496;-21.974;-46.800;2022-08-21T14:38:34;7.95;;;4.75;;
49590;SDS011;35496;-21.974;-46.800;2022-08-21T14:41:04;8.07;;;3.97;;
49590;SDS011;35496;-21.974;-46.800;2022-08-21T14:43:41;6.60;;;3.90;;
49590;SDS011;35496;-21.974;-46.800;2022-08-21T14:46:09;5.43;;;3.67;;
49590;SDS011;35496;-21.974;-46.800;2022-08-21T14:48:36;7.78;;;4.05;;
49590;SDS011;35496;-21.974;-46.800;2022-08-21T14:51:03;10.70;;;4.15;;
49590;SDS011;35496;-21.974;-46.800;2022-08-21T14:53:30;7.95;;;4.93;;
49590;SDS011;35496;-21.974;-46.800;2022-08-21T14:55:56;13.90;;;5.65;;
49590;SDS011;35496;-21.974;-46.800;2022-08-21T14:58:33;8.02;;;4.95;;
49590;SDS011;35496;-21.974;-46.800;2022-08-21T15:01:03;6.03;;;3.97;;
49590;SDS011;35496;-21.974;-46.800;2022-08-21T15:03:33;7.85;;;4.97;;
49590;SDS011;35496;-21.974;-46.800;2022-08-21T15:06:00;7.68;;;4.50;;
49590;SDS011;35496;-21.974;-46.800;2022-08-21T15:08:27;16.98;;;4.78;;
49590;SDS011;35496;-21.974;-46.800;2022-08-21T15:10:54;7.38;;;4.55;;
49590;SDS011;35496;-21.974;-46.800;2022-08-21T15:13:21;5.40;;;4.35;;
49590;SDS011;35496;-21.974;-46.800;2022-08-21T15:15:49;10.13;;;4.28;;
49590;SDS011;35496;-21.974;-46.800;2022-08-21T15:18:19;12.85;;;4.18;;
49590;SDS011;35496;-21.974;-46.800;2022-08-21T15:20:46;8.95;;;4.80;;
49590;SDS011;35496;-21.974;-46.800;2022-08-21T15:23:13;5.90;;;4.43;;
49590;SDS011;35496;-21.974;-46.800;2022-08-21T15:25:41;18.42;;;4.82;;
49590;SDS011;35496;-21.974;-46.800;2022-08-21T15:28:10;6.07;;;3.33;;
49590;SDS011;35496;-21.974;-46.800;2022-08-21T15:30:38;9.35;;;3.33;;
49590;SDS011;35496;-21.974;-46.800;2022-08-21T15:33:06;6.63;;;3.30;;
49590;SDS011;35496;-21.974;-46.800;2022-08-21T15:35:33;8.45;;;3.90;;
49590;SDS011;35496;-21.974;-46.800;2022-08-21T15:38:00;6.85;;;3.50;;
49590;SDS011;35496;-21.974;-46.800;2022-08-21T15:40:27;10.75;;;3.35;;
49590;SDS011;35496;-21.974;-46.800;2022-08-21T15:42:59;6.93;;;3.47;;
49590;SDS011;35496;-21.974;-46.800;2022-08-21T15:47:54;5.28;;;2.78;;
49590;SDS011;35496;-21.974;-46.800;2022-08-21T15:50:22;6.30;;;2.40;;
49590;SDS011;35496;-21.974;-46.800;2022-08-21T15:52:50;6.10;;;2.85;;
49590;SDS011;35496;-21.974;-46.800;2022-08-21T15:55:16;3.67;;;2.30;;